MMPB/PBC METAR and TAF weather

Enter ICAO airport designator
Station Type Date Time Source
MMPB METAR 2022/11/26 01:44 UTC NOAA

MMPB 260144Z 16004KT 9SM FEW025 SCT230 14/09 A3026 RMK 8/202 HZY DSNT CB SE


Station Type Date Time Source
MMPB Decoded METAR 2022/11/26 01:44 UTC NOAA

Puebla, Pue., Mexico (MMPB) 19-03N 098-10W
Nov 25, 2022 - 08:44 PM EST / 2022.11.26 0144 UTC
Wind: from the SSE (160 degrees) at 5 MPH (4 KT):0
Visibility: 9 mile(s):0
Sky conditions: partly cloudy
Weather: Cumulonimbus clouds observed
Temperature: 57 F (14 C)
Dew Point: 48 F (9 C)
Relative Humidity: 71%
Pressure (altimeter): 30.26 in. Hg (1024 hPa)
ob: MMPB 260144Z 16004KT 9SM FEW025 SCT230 14/09 A3026 RMK 8/202 HZY DSNT CB SE
cycle: 1

Station Type Date Time Source
MMPB TAF 2022/11/26 06:08 UTC NOAA

TAF MMPB 260501Z 2606/2706 16010KT P6SM SCT025
FM261200 02005KT 6SM HZ SCT030 BKN070
FM261800 22005KT P6SM BKN070 BKN230
FM270300 20010KT P6SM SCT020 BKN230

Example: see airport list